createdAt,value
2016-04-14T00:00:09.873Z,1007.17
2016-04-14T00:01:09.861Z,1007.14
2016-04-14T00:02:09.847Z,1007.04
2016-04-14T00:03:09.835Z,1007.17
2016-04-14T00:04:09.821Z,1007.09
2016-04-14T00:05:09.808Z,1007.07
2016-04-14T00:06:09.796Z,1007.11
2016-04-14T00:07:09.783Z,1007.1
2016-04-14T00:08:09.769Z,1007.03
2016-04-14T00:09:09.755Z,1007.07
2016-04-14T00:10:09.758Z,1007
2016-04-14T00:11:09.729Z,1007.01
2016-04-14T00:12:09.716Z,1007.07
2016-04-14T00:13:09.703Z,1007.05
2016-04-14T00:14:09.674Z,1006.99
2016-04-14T00:15:09.677Z,1006.94
2016-04-14T00:16:09.649Z,1006.96
2016-04-14T00:17:09.635Z,1007.03
2016-04-14T00:18:09.623Z,1006.98
2016-04-14T00:19:09.610Z,1006.99
2016-04-14T00:20:09.597Z,1006.91
2016-04-14T00:21:09.584Z,1006.89
2016-04-14T00:22:09.571Z,1006.84
2016-04-14T00:23:09.559Z,1006.88
2016-04-14T00:24:09.545Z,1006.87
2016-04-14T00:25:09.564Z,1006.86
2016-04-14T00:26:09.519Z,1006.76
2016-04-14T00:27:09.507Z,1006.77
2016-04-14T00:28:09.478Z,1006.8
2016-04-14T00:29:09.480Z,1006.78
2016-04-14T00:30:09.453Z,1006.84
2016-04-14T00:31:09.439Z,1006.79
2016-04-14T00:32:09.425Z,1006.88
2016-04-14T00:33:09.414Z,1006.86
2016-04-14T00:34:09.416Z,1006.85
2016-04-14T00:35:09.387Z,1006.95
2016-04-14T00:36:09.379Z,1006.9
2016-04-14T00:37:09.368Z,1006.91
2016-04-14T00:38:09.340Z,1006.95
2016-04-14T00:39:09.343Z,1006.82
2016-04-14T00:40:09.329Z,1006.87
2016-04-14T00:41:09.301Z,1006.84
2016-04-14T00:42:09.288Z,1006.84
2016-04-14T00:43:09.275Z,1006.83
2016-04-14T00:44:09.262Z,1006.79
2016-04-14T00:45:09.249Z,1006.81
2016-04-14T00:46:09.237Z,1006.78
2016-04-14T00:47:09.224Z,1006.81
2016-04-14T00:48:09.210Z,1006.67
2016-04-14T00:49:09.198Z,1006.68
2016-04-14T00:50:09.185Z,1006.71
2016-04-14T00:51:09.172Z,1006.73
2016-04-14T00:52:09.142Z,1006.7
2016-04-14T00:53:09.131Z,1006.79
2016-04-14T00:54:09.133Z,1006.81
2016-04-14T00:55:09.167Z,1006.79
2016-04-14T00:56:09.091Z,1006.72
2016-04-14T00:57:09.078Z,1006.73
2016-04-14T00:58:09.066Z,1006.76
2016-04-14T00:59:09.052Z,1006.77
2016-04-14T01:00:09.039Z,1006.71
2016-04-14T01:01:09.027Z,1006.66
2016-04-14T01:02:09.013Z,1006.71
2016-04-14T01:03:09.000Z,1006.63
2016-04-14T01:04:08.988Z,1006.68
2016-04-14T01:05:08.974Z,1006.57
2016-04-14T01:06:08.963Z,1006.61
2016-04-14T01:07:08.933Z,1006.61
2016-04-14T01:08:08.921Z,1006.57
2016-04-14T01:09:08.923Z,1006.58
2016-04-14T01:10:08.910Z,1006.49
2016-04-14T01:11:08.882Z,1006.46
2016-04-14T01:12:08.868Z,1006.54
2016-04-14T01:13:08.856Z,1006.47
2016-04-14T01:14:08.843Z,1006.48
2016-04-14T01:15:08.829Z,1006.48
2016-04-14T01:16:08.817Z,1006.42
2016-04-14T01:17:08.804Z,1006.52
2016-04-14T01:18:08.794Z,1006.51
2016-04-14T01:19:08.772Z,1006.49
2016-04-14T01:20:08.759Z,1006.48
2016-04-14T01:21:08.747Z,1006.48
2016-04-14T01:22:08.733Z,1006.45
2016-04-14T01:23:08.720Z,1006.43
2016-04-14T01:24:08.708Z,1006.4
2016-04-14T01:25:08.710Z,1006.45
2016-04-14T01:26:08.682Z,1006.47
2016-04-14T01:27:08.669Z,1006.32
2016-04-14T01:28:08.655Z,1006.36
2016-04-14T01:29:08.643Z,1006.36
2016-04-14T01:30:08.614Z,1006.29
2016-04-14T01:31:08.601Z,1006.33
2016-04-14T01:32:08.589Z,1006.28
2016-04-14T01:33:08.576Z,1006.34
2016-04-14T01:34:08.563Z,1006.24
2016-04-14T01:35:08.549Z,1006.35
2016-04-14T01:36:08.537Z,1006.18
2016-04-14T01:37:08.524Z,1006.24
2016-04-14T01:38:08.510Z,1006.34
2016-04-14T01:39:08.498Z,1006.29
2016-04-14T01:40:08.485Z,1006.29
2016-04-14T01:41:08.472Z,1006.22
2016-04-14T01:42:08.443Z,1006.22
2016-04-14T01:43:08.446Z,1006.24
2016-04-14T01:44:08.418Z,1006.33
2016-04-14T01:45:08.404Z,1006.27
2016-04-14T01:46:08.392Z,1006.32
2016-04-14T01:47:08.378Z,1006.21
2016-04-14T01:48:08.366Z,1006.29
2016-04-14T01:49:08.353Z,1006.27
2016-04-14T01:50:08.340Z,1006.22
2016-04-14T01:51:08.327Z,1006.21
2016-04-14T01:52:08.314Z,1006.17
2016-04-14T01:53:08.301Z,1006.18
2016-04-14T01:54:08.288Z,1006.19
2016-04-14T01:55:08.260Z,1006.16
2016-04-14T01:56:08.262Z,1006.17
2016-04-14T01:57:08.234Z,1006.21
2016-04-14T01:58:08.221Z,1006.17
2016-04-14T01:59:08.208Z,1006.22
2016-04-14T02:00:08.195Z,1006.17
2016-04-14T02:01:08.182Z,1006.23
2016-04-14T02:02:08.169Z,1006.22
2016-04-14T02:03:08.157Z,1006.22
2016-04-14T02:04:08.143Z,1006.21
2016-04-14T02:05:08.130Z,1006.1
2016-04-14T02:06:08.117Z,1006.11
2016-04-14T02:07:08.104Z,1006.18
2016-04-14T02:08:08.091Z,1006.24
2016-04-14T02:09:08.063Z,1006.08
2016-04-14T02:10:08.050Z,1006.03
2016-04-14T02:11:08.037Z,1006.05
2016-04-14T02:12:08.023Z,1006.02
2016-04-14T02:13:08.011Z,1006.06
2016-04-14T02:14:07.998Z,1006.06
2016-04-14T02:15:07.985Z,1006.08
2016-04-14T02:16:07.973Z,1006.11
2016-04-14T02:17:07.960Z,1006.11
2016-04-14T02:18:07.947Z,1006.08
2016-04-14T02:19:07.933Z,1006.04
2016-04-14T02:20:07.921Z,1006.1
2016-04-14T02:21:07.908Z,1006.04
2016-04-14T02:22:07.895Z,1006.1
2016-04-14T02:23:07.882Z,1006.01
2016-04-14T02:24:07.853Z,1006.09
2016-04-14T02:25:07.841Z,1006.14
2016-04-14T02:26:07.827Z,1006.06
2016-04-14T02:27:07.814Z,1006.11
2016-04-14T02:28:07.801Z,1006.12
2016-04-14T02:29:07.789Z,1006.05
2016-04-14T02:30:07.775Z,1006.15
2016-04-14T02:31:07.762Z,1006.17
2016-04-14T02:32:07.750Z,1006.11
2016-04-14T02:33:07.737Z,1006.14
2016-04-14T02:34:07.724Z,1006.13
2016-04-14T02:35:07.711Z,1006.13
2016-04-14T02:36:07.698Z,1006.11
2016-04-14T02:37:07.685Z,1006.01
2016-04-14T02:38:07.657Z,1006
2016-04-14T02:39:07.643Z,1006.07
2016-04-14T02:40:07.646Z,1005.97
2016-04-14T02:41:07.618Z,1005.98
2016-04-14T02:42:07.604Z,1005.98
2016-04-14T02:43:07.592Z,1006
2016-04-14T02:44:07.579Z,1005.93
2016-04-14T02:45:07.565Z,1005.96
2016-04-14T02:46:07.553Z,1005.96
2016-04-14T02:47:07.540Z,1005.8
2016-04-14T02:48:07.527Z,1005.93
2016-04-14T02:49:07.514Z,1006
2016-04-14T02:50:07.501Z,1005.9
2016-04-14T02:51:07.488Z,1005.97
2016-04-14T02:52:07.476Z,1005.94
2016-04-14T02:53:07.462Z,1005.91
2016-04-14T02:54:07.434Z,1005.91
2016-04-14T02:55:07.436Z,1005.93
2016-04-14T02:56:07.408Z,1005.93
2016-04-14T02:57:07.395Z,1005.9
2016-04-14T02:58:07.382Z,1005.87
2016-04-14T02:59:07.369Z,1005.83
2016-04-14T03:00:07.356Z,1005.91
2016-04-14T03:01:07.344Z,1005.95
2016-04-14T03:02:07.330Z,1005.82
2016-04-14T03:03:07.318Z,1005.81
2016-04-14T03:04:07.304Z,1005.81
2016-04-14T03:05:07.292Z,1005.78
2016-04-14T03:06:07.279Z,1005.76
2016-04-14T03:07:07.265Z,1005.78
2016-04-14T03:08:07.253Z,1005.82
2016-04-14T03:09:07.240Z,1005.71
2016-04-14T03:10:07.212Z,1005.75
2016-04-14T03:11:07.198Z,1005.71
2016-04-14T03:12:07.201Z,1005.82
2016-04-14T03:13:07.172Z,1005.8
2016-04-14T03:14:07.160Z,1005.84
2016-04-14T03:15:07.146Z,1005.82
2016-04-14T03:16:07.133Z,1005.78
2016-04-14T03:17:07.121Z,1005.77
2016-04-14T03:18:07.108Z,1005.82
2016-04-14T03:19:07.095Z,1005.82
2016-04-14T03:20:07.082Z,1005.84
2016-04-14T03:21:07.069Z,1005.81
2016-04-14T03:22:07.056Z,1005.88
2016-04-14T03:23:07.043Z,1005.86
2016-04-14T03:24:07.014Z,1005.8
2016-04-14T03:25:07.017Z,1005.82
2016-04-14T03:26:07.005Z,1005.89
2016-04-14T03:27:06.975Z,1005.77
2016-04-14T03:28:06.964Z,1005.78
2016-04-14T03:29:06.950Z,1005.79
2016-04-14T03:30:06.937Z,1005.79
2016-04-14T03:31:06.924Z,1005.76
2016-04-14T03:32:06.911Z,1005.77
2016-04-14T03:33:06.899Z,1005.82
2016-04-14T03:34:06.885Z,1005.77
2016-04-14T03:35:06.872Z,1005.71
2016-04-14T03:36:06.859Z,1005.71
2016-04-14T03:37:06.846Z,1005.77
2016-04-14T03:38:06.818Z,1005.65
2016-04-14T03:39:06.821Z,1005.83
2016-04-14T03:40:06.792Z,1005.74
2016-04-14T03:41:06.779Z,1005.63
2016-04-14T03:42:06.766Z,1005.74
2016-04-14T03:43:06.753Z,1005.74
2016-04-14T03:44:06.740Z,1005.79
2016-04-14T03:45:06.727Z,1005.67
2016-04-14T03:46:06.714Z,1005.63
2016-04-14T03:47:06.702Z,1005.7
2016-04-14T03:48:06.689Z,1005.72
2016-04-14T03:49:06.675Z,1005.77
2016-04-14T03:50:06.663Z,1005.7
2016-04-14T03:51:06.650Z,1005.68
2016-04-14T03:52:06.621Z,1005.68
2016-04-14T03:53:06.608Z,1005.67
2016-04-14T03:54:06.595Z,1005.62
2016-04-14T03:55:06.583Z,1005.67
2016-04-14T03:56:06.570Z,1005.47
2016-04-14T03:57:06.556Z,1005.62
2016-04-14T03:58:06.543Z,1005.66
2016-04-14T03:59:06.530Z,1005.7
2016-04-14T04:00:06.517Z,1005.66
2016-04-14T04:01:06.505Z,1005.67
2016-04-14T04:02:06.491Z,1005.81
2016-04-14T04:03:06.479Z,1005.64
2016-04-14T04:04:06.466Z,1005.64
2016-04-14T04:05:06.452Z,1005.73
2016-04-14T04:06:06.440Z,1005.59
2016-04-14T04:07:06.411Z,1005.72
2016-04-14T04:08:06.398Z,1005.66
2016-04-14T04:09:06.386Z,1005.66
2016-04-14T04:10:06.373Z,1005.72
2016-04-14T04:11:06.359Z,1005.61
2016-04-14T04:12:06.347Z,1005.58
2016-04-14T04:13:06.334Z,1005.64
2016-04-14T04:14:06.321Z,1005.67
2016-04-14T04:15:06.308Z,1005.58
2016-04-14T04:16:06.295Z,1005.55
2016-04-14T04:17:06.282Z,1005.63
2016-04-14T04:18:06.270Z,1005.52
2016-04-14T04:19:06.272Z,1005.47
2016-04-14T04:20:06.243Z,1005.55
2016-04-14T04:21:06.215Z,1005.62
2016-04-14T04:22:06.218Z,1005.45
2016-04-14T04:23:06.189Z,1005.43
2016-04-14T04:24:06.176Z,1005.53
2016-04-14T04:25:06.163Z,1005.49
2016-04-14T04:26:06.166Z,1005.55
2016-04-14T04:27:06.137Z,1005.55
2016-04-14T04:28:06.125Z,1005.41
2016-04-14T04:29:06.111Z,1005.39
2016-04-14T04:30:06.097Z,1005.4
2016-04-14T04:31:06.086Z,1005.54
2016-04-14T04:32:06.072Z,1005.38
2016-04-14T04:33:06.060Z,1005.33
2016-04-14T04:34:06.047Z,1005.56
2016-04-14T04:35:06.018Z,1005.47
2016-04-14T04:36:06.005Z,1005.52
2016-04-14T04:37:05.992Z,1005.53
2016-04-14T04:38:05.979Z,1005.53
2016-04-14T04:39:05.966Z,1005.57
2016-04-14T04:40:05.953Z,1005.43
2016-04-14T04:41:05.940Z,1005.45
2016-04-14T04:42:05.927Z,1005.41
2016-04-14T04:43:05.915Z,1005.37
2016-04-14T04:44:05.901Z,1005.33
2016-04-14T04:45:05.888Z,1005.31
2016-04-14T04:46:05.876Z,1005.37
2016-04-14T04:47:05.862Z,1005.36
2016-04-14T04:48:05.834Z,1005.25
2016-04-14T04:49:05.837Z,1005.37
2016-04-14T04:50:05.808Z,1005.41
2016-04-14T04:51:05.795Z,1005.37
2016-04-14T04:52:05.782Z,1005.48
2016-04-14T04:53:05.770Z,1005.48
2016-04-14T04:54:05.772Z,1005.38
2016-04-14T04:55:05.744Z,1005.44
2016-04-14T04:56:05.731Z,1005.44
2016-04-14T04:57:05.717Z,1005.54
2016-04-14T04:58:05.705Z,1005.37
2016-04-14T04:59:05.691Z,1005.46
2016-04-14T05:00:05.678Z,1005.46
2016-04-14T05:01:05.667Z,1005.5
2016-04-14T05:02:05.638Z,1005.47
2016-04-14T05:03:05.640Z,1005.45
2016-04-14T05:04:05.628Z,1005.45
2016-04-14T05:05:05.614Z,1005.49
2016-04-14T05:06:05.586Z,1005.36
2016-04-14T05:07:05.572Z,1005.41
2016-04-14T05:08:05.560Z,1005.38
2016-04-14T05:09:05.546Z,1005.38
2016-04-14T05:10:05.535Z,1005.35
2016-04-14T05:11:05.552Z,1005.29
2016-04-14T05:12:05.508Z,1005.34
2016-04-14T05:13:05.510Z,1005.39
2016-04-14T05:14:05.541Z,1005.39
2016-04-14T05:15:05.572Z,1005.44
2016-04-14T05:16:05.604Z,1005.43
2016-04-14T05:17:05.636Z,1005.44
2016-04-14T05:18:05.658Z,1005.31
2016-04-14T05:19:05.662Z,1005.4
2016-04-14T05:20:05.649Z,1005.45
2016-04-14T05:21:05.668Z,1005.34
2016-04-14T05:22:05.655Z,1005.31
2016-04-14T05:23:05.656Z,1005.43
2016-04-14T05:24:05.664Z,1005.39
2016-04-14T05:25:05.641Z,1005.2
2016-04-14T05:26:05.649Z,1005.5
2016-04-14T05:27:05.626Z,1005.39
2016-04-14T05:28:05.619Z,1005.43
2016-04-14T05:29:05.608Z,1005.28
2016-04-14T05:30:05.596Z,1005.47
2016-04-14T05:31:05.587Z,1005.42
2016-04-14T05:32:05.561Z,1005.36
2016-04-14T05:33:05.565Z,1005.35
2016-04-14T05:34:05.552Z,1005.47
2016-04-14T05:35:05.540Z,1005.36
2016-04-14T05:36:05.529Z,1005.47
2016-04-14T05:37:05.500Z,1005.41
2016-04-14T05:38:05.488Z,1005.37
2016-04-14T05:39:05.475Z,1005.39
2016-04-14T05:40:05.463Z,1005.37
2016-04-14T05:41:05.465Z,1005.39
2016-04-14T05:42:05.436Z,1005.43
2016-04-14T05:43:05.423Z,1005.28
2016-04-14T05:44:05.410Z,1005.36
2016-04-14T05:45:05.397Z,1005.42
2016-04-14T05:46:05.385Z,1005.42
2016-04-14T05:47:05.372Z,1005.45
2016-04-14T05:48:05.359Z,1005.44
2016-04-14T05:49:05.346Z,1005.44
2016-04-14T05:50:05.318Z,1005.49
2016-04-14T05:51:05.304Z,1005.58
2016-04-14T05:52:05.291Z,1005.5
2016-04-14T05:53:05.279Z,1005.64
2016-04-14T05:54:05.265Z,1005.65
2016-04-14T05:55:05.253Z,1005.52
2016-04-14T05:56:05.239Z,1005.57
2016-04-14T05:57:05.226Z,1005.51
2016-04-14T05:58:05.214Z,1005.59
2016-04-14T05:59:05.201Z,1005.63
2016-04-14T06:00:05.188Z,1005.55
2016-04-14T06:01:05.175Z,1005.58
2016-04-14T06:02:05.162Z,1005.56
2016-04-14T06:03:05.150Z,1005.53
2016-04-14T06:04:05.120Z,1005.56
2016-04-14T06:05:05.108Z,1005.67
2016-04-14T06:06:05.094Z,1005.44
2016-04-14T06:07:05.097Z,1005.65
2016-04-14T06:08:05.068Z,1005.61
2016-04-14T06:09:05.071Z,1005.78
2016-04-14T06:10:05.043Z,1005.68
2016-04-14T06:11:05.029Z,1005.67
2016-04-14T06:12:05.016Z,1005.7
2016-04-14T06:13:05.004Z,1005.8
2016-04-14T06:14:04.990Z,1005.79
2016-04-14T06:15:04.977Z,1005.76
2016-04-14T06:16:04.965Z,1005.65
2016-04-14T06:17:04.952Z,1005.77
2016-04-14T06:18:04.939Z,1005.77
2016-04-14T06:19:04.927Z,1005.82
2016-04-14T06:20:04.898Z,1005.72
2016-04-14T06:21:04.885Z,1005.75
2016-04-14T06:22:04.871Z,1005.83
2016-04-14T06:23:04.859Z,1005.78
2016-04-14T06:24:04.846Z,1005.64
2016-04-14T06:25:04.834Z,1005.81
2016-04-14T06:26:04.821Z,1005.77
2016-04-14T06:27:04.807Z,1005.83
2016-04-14T06:28:04.795Z,1005.86
2016-04-14T06:29:04.782Z,1005.83
2016-04-14T06:30:04.768Z,1005.88
2016-04-14T06:31:04.756Z,1005.84
2016-04-14T06:32:04.742Z,1005.9
2016-04-14T06:33:04.730Z,1005.95
2016-04-14T06:34:04.716Z,1005.91
2016-04-14T06:35:04.688Z,1005.87
2016-04-14T06:36:04.691Z,1005.96
2016-04-14T06:37:04.661Z,1005.94
2016-04-14T06:38:04.664Z,1006.04
2016-04-14T06:39:04.636Z,1005.91
2016-04-14T06:40:04.624Z,1006.04
2016-04-14T06:41:04.611Z,1006.02
2016-04-14T06:42:04.597Z,1005.99
2016-04-14T06:43:04.585Z,1006.2
2016-04-14T06:44:04.571Z,1006.02
2016-04-14T06:45:04.558Z,1006.08
2016-04-14T06:46:04.546Z,1006.05
2016-04-14T06:47:04.533Z,1005.97
2016-04-14T06:48:04.520Z,1006.08
2016-04-14T06:49:04.507Z,1006.05
2016-04-14T06:50:04.493Z,1006.08
2016-04-14T06:51:04.481Z,1006.11
2016-04-14T06:52:04.452Z,1006.11
2016-04-14T06:53:04.440Z,1006.01
2016-04-14T06:54:04.443Z,1006.01
2016-04-14T06:55:04.414Z,1005.94
2016-04-14T06:56:04.401Z,1006.07
2016-04-14T06:57:04.388Z,1006.02
2016-04-14T06:58:04.375Z,1006.05
2016-04-14T06:59:04.363Z,1006.14
2016-04-14T07:00:04.349Z,1006.08
2016-04-14T07:01:04.337Z,1006.09
2016-04-14T07:02:04.324Z,1006.04
2016-04-14T07:03:04.311Z,1006.2
2016-04-14T07:04:04.299Z,1006
2016-04-14T07:05:04.285Z,1006.06
2016-04-14T07:06:04.273Z,1006.07
2016-04-14T07:07:04.255Z,1006.05
2016-04-14T07:08:04.242Z,1005.97
2016-04-14T07:09:04.223Z,1006.09
2016-04-14T07:10:04.209Z,1006.05
2016-04-14T07:11:04.202Z,1006.15
2016-04-14T07:12:04.191Z,1006.17
2016-04-14T07:13:04.162Z,1006.11
2016-04-14T07:14:04.157Z,1006.16
2016-04-14T07:15:04.143Z,1006.07
2016-04-14T07:16:04.131Z,1006.14
2016-04-14T07:17:04.116Z,1006.11
2016-04-14T07:18:04.101Z,1006.2
2016-04-14T07:19:04.088Z,1006.12
2016-04-14T07:20:04.075Z,1006.18
2016-04-14T07:21:04.062Z,1006.25
2016-04-14T07:22:04.049Z,1006.17
2016-04-14T07:23:04.035Z,1006.14
2016-04-14T07:24:04.023Z,1006.21
2016-04-14T07:25:03.995Z,1006.24
2016-04-14T07:26:03.981Z,1006.23
2016-04-14T07:27:03.968Z,1006.22
2016-04-14T07:28:03.955Z,1006.28
2016-04-14T07:29:03.942Z,1006.23
2016-04-14T07:30:03.929Z,1006.21
2016-04-14T07:31:03.917Z,1006.24
2016-04-14T07:32:03.903Z,1006.15
2016-04-14T07:33:03.891Z,1006.24
2016-04-14T07:34:03.878Z,1006.31
2016-04-14T07:35:03.864Z,1006.29
2016-04-14T07:36:03.852Z,1006.31
2016-04-14T07:37:03.839Z,1006.35
2016-04-14T07:38:03.811Z,1006.24
2016-04-14T07:39:03.798Z,1006.39
2016-04-14T07:40:03.786Z,1006.28
2016-04-14T07:41:03.772Z,1006.47
2016-04-14T07:42:03.759Z,1006.45
2016-04-14T07:43:03.746Z,1006.26
2016-04-14T07:44:03.733Z,1006.29
2016-04-14T07:45:03.720Z,1006.31
2016-04-14T07:46:03.707Z,1006.33
2016-04-14T07:47:03.694Z,1006.36
2016-04-14T07:48:03.681Z,1006.15
2016-04-14T07:49:03.668Z,1006.45
2016-04-14T07:50:03.655Z,1006.38
2016-04-14T07:51:03.626Z,1006.28
2016-04-14T07:52:03.614Z,1006.48
2016-04-14T07:53:03.601Z,1006.39
2016-04-14T07:54:03.588Z,1006.45
2016-04-14T07:55:03.591Z,1006.46
2016-04-14T07:56:03.562Z,1006.43
2016-04-14T07:57:03.549Z,1006.42
2016-04-14T07:58:03.536Z,1006.48
2016-04-14T07:59:03.523Z,1006.45
2016-04-14T08:00:03.509Z,1006.46
2016-04-14T08:01:03.497Z,1006.42
2016-04-14T08:02:03.484Z,1006.37
2016-04-14T08:03:03.472Z,1006.36
2016-04-14T08:04:03.443Z,1006.43
2016-04-14T08:05:03.445Z,1006.52
2016-04-14T08:06:03.417Z,1006.45
2016-04-14T08:07:03.404Z,1006.47
2016-04-14T08:08:03.391Z,1006.47
2016-04-14T08:09:03.443Z,1006.46
2016-04-14T08:10:03.356Z,1006.46
2016-04-14T08:11:03.343Z,1006.43
2016-04-14T08:12:03.345Z,1006.47
2016-04-14T08:13:03.317Z,1006.37
2016-04-14T08:14:03.320Z,1006.58
2016-04-14T08:15:03.291Z,1006.51
2016-04-14T08:16:03.278Z,1006.55
2016-04-14T08:17:03.265Z,1006.54
2016-04-14T08:18:03.253Z,1006.49
2016-04-14T08:19:03.239Z,1006.55
2016-04-14T08:20:03.227Z,1006.55
2016-04-14T08:21:03.213Z,1006.53
2016-04-14T08:22:03.341Z,1006.6
2016-04-14T08:23:03.188Z,1006.52
2016-04-14T08:24:03.330Z,1006.46
2016-04-14T08:25:03.161Z,1006.55
2016-04-14T08:26:03.148Z,1006.49
2016-04-14T08:27:03.135Z,1006.52
2016-04-14T08:28:03.107Z,1006.44
2016-04-14T08:29:03.110Z,1006.56
2016-04-14T08:30:03.082Z,1006.43
2016-04-14T08:31:03.068Z,1006.62
2016-04-14T08:32:03.055Z,1006.6
2016-04-14T08:33:03.058Z,1006.55
2016-04-14T08:34:03.029Z,1006.44
2016-04-14T08:35:03.017Z,1006.68
2016-04-14T08:36:03.003Z,1006.65
2016-04-14T08:37:02.998Z,1006.72
2016-04-14T08:38:02.970Z,1006.67
2016-04-14T08:39:02.973Z,1006.58
2016-04-14T08:40:02.960Z,1006.57
2016-04-14T08:41:02.931Z,1006.5
2016-04-14T08:42:02.934Z,1006.54
2016-04-14T08:43:02.906Z,1006.55
2016-04-14T08:44:02.892Z,1006.46
2016-04-14T08:45:02.880Z,1006.53
2016-04-14T08:46:02.866Z,1006.54
2016-04-14T08:47:02.853Z,1006.43
2016-04-14T08:48:02.841Z,1006.57
2016-04-14T08:49:02.827Z,1006.54
2016-04-14T08:50:02.814Z,1006.43
2016-04-14T08:51:02.801Z,1006.73
2016-04-14T08:52:02.788Z,1006.7
2016-04-14T08:53:02.822Z,1006.65
2016-04-14T08:54:02.763Z,1006.63
2016-04-14T08:55:02.750Z,1006.8
2016-04-14T08:56:02.737Z,1006.79
2016-04-14T08:57:02.724Z,1006.69
2016-04-14T08:58:02.710Z,1006.82
2016-04-14T08:59:02.682Z,1006.87
2016-04-14T09:00:02.670Z,1006.73
2016-04-14T09:01:02.673Z,1006.79
2016-04-14T09:02:02.644Z,1006.84
2016-04-14T09:03:02.632Z,1006.72
2016-04-14T09:04:02.618Z,1006.54
2016-04-14T09:05:02.605Z,1006.74
2016-04-14T09:06:02.593Z,1006.72
2016-04-14T09:07:02.579Z,1006.67
2016-04-14T09:08:02.567Z,1006.8
2016-04-14T09:09:02.553Z,1006.77
2016-04-14T09:10:02.540Z,1006.75
2016-04-14T09:11:02.527Z,1006.58
2016-04-14T09:12:02.514Z,1006.71
2016-04-14T09:13:02.501Z,1006.78
2016-04-14T09:14:02.488Z,1006.79
2016-04-14T09:15:02.476Z,1006.84
2016-04-14T09:16:02.463Z,1006.86
2016-04-14T09:17:02.450Z,1006.81
2016-04-14T09:18:02.437Z,1006.84
2016-04-14T09:19:02.424Z,1006.92
2016-04-14T09:20:02.411Z,1006.87
2016-04-14T09:21:02.397Z,1006.77
2016-04-14T09:22:02.385Z,1006.87
2016-04-14T09:23:02.371Z,1006.85
2016-04-14T09:24:02.343Z,1006.78
2016-04-14T09:25:02.330Z,1006.81
2016-04-14T09:26:02.318Z,1006.8
2016-04-14T09:27:02.304Z,1006.71
2016-04-14T09:28:02.292Z,1006.75
2016-04-14T09:29:02.279Z,1006.68
2016-04-14T09:30:02.266Z,1006.72
2016-04-14T09:31:02.253Z,1006.75
2016-04-14T09:32:02.240Z,1006.77
2016-04-14T09:33:02.227Z,1006.73
2016-04-14T09:34:02.214Z,1006.83
2016-04-14T09:35:02.201Z,1006.82
2016-04-14T09:36:02.188Z,1006.96
2016-04-14T09:37:02.176Z,1006.86
2016-04-14T09:38:02.163Z,1006.93
2016-04-14T09:39:02.150Z,1006.75
2016-04-14T09:40:02.137Z,1006.86
2016-04-14T09:41:02.123Z,1006.83
2016-04-14T09:42:02.111Z,1006.89
2016-04-14T09:43:02.097Z,1007.05
2016-04-14T09:44:02.084Z,1006.85
2016-04-14T09:45:02.072Z,1006.93
2016-04-14T09:46:02.058Z,1006.96
2016-04-14T09:47:02.046Z,1007.03
2016-04-14T09:48:02.033Z,1007.06
2016-04-14T09:49:02.020Z,1007.02
2016-04-14T09:50:02.007Z,1007.01
2016-04-14T09:51:01.994Z,1007.03
2016-04-14T09:52:01.981Z,1007.04
2016-04-14T09:53:01.968Z,1007.05
2016-04-14T09:54:01.955Z,1007.17
2016-04-14T09:55:01.942Z,1007.02
2016-04-14T09:56:01.929Z,1007.1
2016-04-14T09:57:01.932Z,1007.13
2016-04-14T09:58:01.888Z,1007
2016-04-14T09:59:01.890Z,1007.17
2016-04-14T10:00:01.862Z,1006.99
2016-04-14T10:01:01.849Z,1006.96
2016-04-14T10:02:01.837Z,1007.05
2016-04-14T10:03:01.823Z,1007.02
2016-04-14T10:04:01.826Z,1007.12
2016-04-14T10:05:01.813Z,1007.03
2016-04-14T10:06:01.784Z,1007.1
2016-04-14T10:07:01.772Z,1007.12
2016-04-14T10:08:01.759Z,1007
2016-04-14T10:09:01.746Z,1007.02
2016-04-14T10:10:01.734Z,1007.02
2016-04-14T10:11:01.720Z,1007.11
2016-04-14T10:12:01.723Z,1007.08
2016-04-14T10:13:01.694Z,1007.08
2016-04-14T10:14:01.697Z,1007.16
2016-04-14T10:15:01.683Z,1007
2016-04-14T10:16:01.655Z,1007.11
2016-04-14T10:17:01.658Z,1007.04
2016-04-14T10:18:01.645Z,1007.06
2016-04-14T10:19:01.633Z,1007.08
2016-04-14T10:20:01.619Z,1007.09
2016-04-14T10:21:01.606Z,1007.11
2016-04-14T10:22:01.593Z,1007.1
2016-04-14T10:23:01.580Z,1007.07
2016-04-14T10:24:01.567Z,1007.17
2016-04-14T10:25:01.554Z,1007
2016-04-14T10:26:01.526Z,1007.19
2016-04-14T10:27:01.637Z,1007.13
2016-04-14T10:28:01.515Z,1007.05
2016-04-14T10:29:01.502Z,1007.14
2016-04-14T10:30:01.490Z,1007.06
2016-04-14T10:31:01.477Z,1007
2016-04-14T10:32:01.463Z,1006.96
2016-04-14T10:33:01.451Z,1007.08
2016-04-14T10:34:01.438Z,1007.09
2016-04-14T10:35:01.425Z,1007.05
2016-04-14T10:36:01.413Z,1007.13
2016-04-14T10:37:01.415Z,1007.07
2016-04-14T10:38:01.387Z,1007.21
2016-04-14T10:39:01.374Z,1007.1
2016-04-14T10:40:01.360Z,1007.11
2016-04-14T10:41:01.348Z,1007.01
2016-04-14T10:42:01.350Z,1006.9
2016-04-14T10:43:01.337Z,1007.13
2016-04-14T10:44:01.308Z,1007.16
2016-04-14T10:45:01.296Z,1007.18
2016-04-14T10:46:01.283Z,1007.22
2016-04-14T10:47:01.270Z,1007.15
2016-04-14T10:48:01.273Z,1007.13
2016-04-14T10:49:01.244Z,1007.14
2016-04-14T10:50:01.231Z,1007.22
2016-04-14T10:51:01.218Z,1007.18
2016-04-14T10:52:01.205Z,1007.18
2016-04-14T10:53:01.191Z,1007.01
2016-04-14T10:54:01.179Z,1007.19
2016-04-14T10:55:01.166Z,1007.14
2016-04-14T10:56:01.153Z,1007.18
2016-04-14T10:57:01.141Z,1007.23
2016-04-14T10:58:01.127Z,1007.28
2016-04-14T10:59:01.115Z,1007.21
2016-04-14T11:00:01.101Z,1007.11
2016-04-14T11:01:01.088Z,1007.13
2016-04-14T11:02:01.076Z,1007.15
2016-04-14T11:03:01.063Z,1007.21
2016-04-14T11:04:01.050Z,1007.39
2016-04-14T11:05:01.038Z,1007.2
2016-04-14T11:06:01.024Z,1007.07
2016-04-14T11:07:01.012Z,1007.26
2016-04-14T11:08:00.998Z,1007.16
2016-04-14T11:09:00.970Z,1007.14
2016-04-14T11:10:00.973Z,1007.12
2016-04-14T11:11:00.943Z,1007.1
2016-04-14T11:12:00.931Z,1007.08
2016-04-14T11:13:00.917Z,1007.12
2016-04-14T11:14:00.906Z,1007.15
2016-04-14T11:15:00.892Z,1007.19
2016-04-14T11:16:00.879Z,1007.22
2016-04-14T11:17:00.866Z,1007.21
2016-04-14T11:18:00.853Z,1007.17
2016-04-14T11:19:00.887Z,1007.22
2016-04-14T11:20:00.827Z,1007.15
2016-04-14T11:21:00.814Z,1007.1
2016-04-14T11:22:00.801Z,1007.11
2016-04-14T11:23:00.788Z,1007.16
2016-04-14T11:24:00.775Z,1007.16
2016-04-14T11:25:00.763Z,1007.14
2016-04-14T11:26:00.750Z,1007.19
2016-04-14T11:27:00.736Z,1007.07
2016-04-14T11:28:00.724Z,1007.17
2016-04-14T11:29:00.710Z,1007.18
2016-04-14T11:30:00.698Z,1007.21
2016-04-14T11:31:00.685Z,1007.19
2016-04-14T11:32:00.672Z,1007.29
2016-04-14T11:33:00.660Z,1007.23
2016-04-14T11:34:00.646Z,1007.25
2016-04-14T11:35:00.632Z,1007.24
2016-04-14T11:36:00.604Z,1007.22
2016-04-14T11:37:00.606Z,1007.27
2016-04-14T11:38:00.594Z,1007.26
2016-04-14T11:39:00.627Z,1007.27
2016-04-14T11:40:00.552Z,1007.18
2016-04-14T11:41:00.539Z,1007.18
2016-04-14T11:42:00.526Z,1007.16
2016-04-14T11:43:00.514Z,1007.19
2016-04-14T11:44:00.500Z,1007.16
2016-04-14T11:45:00.488Z,1007.25
2016-04-14T11:46:00.474Z,1007.33
2016-04-14T11:47:00.461Z,1007.21
2016-04-14T11:48:00.449Z,1007.2
2016-04-14T11:49:00.435Z,1007.25
2016-04-14T11:50:00.412Z,1007.39
2016-04-14T11:51:00.415Z,1007.19
2016-04-14T11:52:00.386Z,1007.14
2016-04-14T11:53:00.388Z,1007.22
2016-04-14T11:54:00.376Z,1007.15
2016-04-14T11:55:00.348Z,1007.21
2016-04-14T11:56:00.334Z,1007.25
2016-04-14T11:57:00.321Z,1007.29
2016-04-14T11:58:00.323Z,1007.24
2016-04-14T11:59:00.295Z,1007.23
2016-04-14T12:00:00.282Z,1007.21
2016-04-14T12:01:00.270Z,1007.33
2016-04-14T12:02:00.257Z,1007.35
2016-04-14T12:03:00.244Z,1007.35
2016-04-14T12:04:00.231Z,1007.35
2016-04-14T12:05:00.233Z,1007.32
2016-04-14T12:06:00.205Z,1007.33
2016-04-14T12:07:00.192Z,1007.28
2016-04-14T12:08:00.178Z,1007.43